sensor_id;sensor_type;location;lat;lon;timestamp;pressure;altitude;pressure_sealevel;temperature
11849;BMP180;5983;49.966;8.052;2023-08-06T00:01:41;99620.00;;;17.00
11849;BMP180;5983;49.966;8.052;2023-08-06T00:04:08;99616.00;;;17.00
11849;BMP180;5983;49.966;8.052;2023-08-06T00:06:36;99608.00;;;17.00
11849;BMP180;5983;49.966;8.052;2023-08-06T00:09:03;99610.00;;;17.00
11849;BMP180;5983;49.966;8.052;2023-08-06T00:11:30;99609.00;;;17.00
11849;BMP180;5983;49.966;8.052;2023-08-06T00:13:56;99606.00;;;17.00
11849;BMP180;5983;49.966;8.052;2023-08-06T00:16:23;99606.00;;;17.00
11849;BMP180;5983;49.966;8.052;2023-08-06T00:18:50;99601.00;;;17.10
11849;BMP180;5983;49.966;8.052;2023-08-06T00:21:16;99589.00;;;17.10
11849;BMP180;5983;49.966;8.052;2023-08-06T00:23:45;99581.00;;;17.10
11849;BMP180;5983;49.966;8.052;2023-08-06T00:26:11;99585.00;;;17.00
11849;BMP180;5983;49.966;8.052;2023-08-06T00:28:38;99574.00;;;17.00
11849;BMP180;5983;49.966;8.052;2023-08-06T00:31:05;99574.00;;;17.00
11849;BMP180;5983;49.966;8.052;2023-08-06T00:33:31;99567.00;;;17.00
11849;BMP180;5983;49.966;8.052;2023-08-06T00:35:58;99567.00;;;17.00
11849;BMP180;5983;49.966;8.052;2023-08-06T00:38:25;99560.00;;;17.10
11849;BMP180;5983;49.966;8.052;2023-08-06T00:40:53;99564.00;;;17.10
11849;BMP180;5983;49.966;8.052;2023-08-06T00:43:19;99561.00;;;17.10
11849;BMP180;5983;49.966;8.052;2023-08-06T00:45:46;99554.00;;;17.10
11849;BMP180;5983;49.966;8.052;2023-08-06T00:48:13;99550.00;;;17.20
11849;BMP180;5983;49.966;8.052;2023-08-06T00:50:40;99549.00;;;17.20
11849;BMP180;5983;49.966;8.052;2023-08-06T00:53:07;99541.00;;;17.20
11849;BMP180;5983;49.966;8.052;2023-08-06T00:55:34;99542.00;;;17.20
11849;BMP180;5983;49.966;8.052;2023-08-06T00:58:03;99530.00;;;17.20
11849;BMP180;5983;49.966;8.052;2023-08-06T01:00:30;99530.00;;;17.20
11849;BMP180;5983;49.966;8.052;2023-08-06T01:02:57;99536.00;;;17.10
11849;BMP180;5983;49.966;8.052;2023-08-06T01:05:23;99533.00;;;17.10
11849;BMP180;5983;49.966;8.052;2023-08-06T01:08:01;99531.00;;;17.10
11849;BMP180;5983;49.966;8.052;2023-08-06T01:10:41;99536.00;;;17.00
11849;BMP180;5983;49.966;8.052;2023-08-06T01:13:18;99529.00;;;17.00
11849;BMP180;5983;49.966;8.052;2023-08-06T01:15:49;99527.00;;;17.00
11849;BMP180;5983;49.966;8.052;2023-08-06T01:18:16;99538.00;;;17.00
11849;BMP180;5983;49.966;8.052;2023-08-06T01:20:44;99522.00;;;17.00
11849;BMP180;5983;49.966;8.052;2023-08-06T01:23:11;99507.00;;;16.90
11849;BMP180;5983;49.966;8.052;2023-08-06T01:25:45;99514.00;;;16.90
11849;BMP180;5983;49.966;8.052;2023-08-06T01:28:18;99518.00;;;16.90
11849;BMP180;5983;49.966;8.052;2023-08-06T01:30:49;99519.00;;;16.80
11849;BMP180;5983;49.966;8.052;2023-08-06T01:33:19;99510.00;;;16.80
11849;BMP180;5983;49.966;8.052;2023-08-06T01:35:49;99504.00;;;16.80
11849;BMP180;5983;49.966;8.052;2023-08-06T01:38:16;99510.00;;;16.80
11849;BMP180;5983;49.966;8.052;2023-08-06T01:40:43;99504.00;;;16.80
11849;BMP180;5983;49.966;8.052;2023-08-06T01:43:10;99505.00;;;16.80
11849;BMP180;5983;49.966;8.052;2023-08-06T01:45:37;99502.00;;;16.80
11849;BMP180;5983;49.966;8.052;2023-08-06T01:48:03;99510.00;;;16.90
11849;BMP180;5983;49.966;8.052;2023-08-06T01:50:30;99504.00;;;16.90
11849;BMP180;5983;49.966;8.052;2023-08-06T01:52:58;99498.00;;;16.80
11849;BMP180;5983;49.966;8.052;2023-08-06T01:55:25;99501.00;;;16.80
11849;BMP180;5983;49.966;8.052;2023-08-06T01:57:52;99495.00;;;16.80
11849;BMP180;5983;49.966;8.052;2023-08-06T02:00:18;99490.00;;;16.80
11849;BMP180;5983;49.966;8.052;2023-08-06T02:02:45;99494.00;;;16.80
11849;BMP180;5983;49.966;8.052;2023-08-06T02:05:12;99488.00;;;16.80
11849;BMP180;5983;49.966;8.052;2023-08-06T02:07:38;99491.00;;;16.80
11849;BMP180;5983;49.966;8.052;2023-08-06T02:10:07;99490.00;;;16.70
11849;BMP180;5983;49.966;8.052;2023-08-06T02:12:34;99501.00;;;16.70
11849;BMP180;5983;49.966;8.052;2023-08-06T02:15:01;99489.00;;;16.60
11849;BMP180;5983;49.966;8.052;2023-08-06T02:17:28;99493.00;;;16.50
11849;BMP180;5983;49.966;8.052;2023-08-06T02:19:54;99499.00;;;16.50
11849;BMP180;5983;49.966;8.052;2023-08-06T02:22:21;99491.00;;;16.40
11849;BMP180;5983;49.966;8.052;2023-08-06T02:24:49;99486.00;;;16.40
11849;BMP180;5983;49.966;8.052;2023-08-06T02:27:17;99488.00;;;16.40
11849;BMP180;5983;49.966;8.052;2023-08-06T02:29:44;99490.00;;;16.50
11849;BMP180;5983;49.966;8.052;2023-08-06T02:32:11;99479.00;;;16.40
11849;BMP180;5983;49.966;8.052;2023-08-06T02:34:37;99478.00;;;16.40
11849;BMP180;5983;49.966;8.052;2023-08-06T02:37:04;99470.00;;;16.40
11849;BMP180;5983;49.966;8.052;2023-08-06T02:39:31;99468.00;;;16.40
11849;BMP180;5983;49.966;8.052;2023-08-06T02:41:59;99463.00;;;16.30
11849;BMP180;5983;49.966;8.052;2023-08-06T02:44:28;99463.00;;;16.30
11849;BMP180;5983;49.966;8.052;2023-08-06T02:46:55;99464.00;;;16.30
11849;BMP180;5983;49.966;8.052;2023-08-06T02:49:22;99453.00;;;16.30
11849;BMP180;5983;49.966;8.052;2023-08-06T02:51:48;99462.00;;;16.30
11849;BMP180;5983;49.966;8.052;2023-08-06T02:54:15;99462.00;;;16.30
11849;BMP180;5983;49.966;8.052;2023-08-06T02:56:43;99452.00;;;16.30
11849;BMP180;5983;49.966;8.052;2023-08-06T02:59:10;99452.00;;;16.30
11849;BMP180;5983;49.966;8.052;2023-08-06T03:01:38;99452.00;;;16.30
11849;BMP180;5983;49.966;8.052;2023-08-06T03:04:06;99445.00;;;16.30
11849;BMP180;5983;49.966;8.052;2023-08-06T03:06:33;99441.00;;;16.30
11849;BMP180;5983;49.966;8.052;2023-08-06T03:08:59;99437.00;;;16.30
11849;BMP180;5983;49.966;8.052;2023-08-06T03:11:26;99432.00;;;16.30
11849;BMP180;5983;49.966;8.052;2023-08-06T03:13:53;99444.00;;;16.40
11849;BMP180;5983;49.966;8.052;2023-08-06T03:16:20;99436.00;;;16.30
11849;BMP180;5983;49.966;8.052;2023-08-06T03:18:48;99436.00;;;16.30
11849;BMP180;5983;49.966;8.052;2023-08-06T03:21:15;99431.00;;;16.30
11849;BMP180;5983;49.966;8.052;2023-08-06T03:23:42;99425.00;;;16.30
11849;BMP180;5983;49.966;8.052;2023-08-06T03:26:09;99431.00;;;16.30
11849;BMP180;5983;49.966;8.052;2023-08-06T03:28:35;99422.00;;;16.30
11849;BMP180;5983;49.966;8.052;2023-08-06T03:31:03;99430.00;;;16.30
11849;BMP180;5983;49.966;8.052;2023-08-06T03:33:30;99429.00;;;16.30
11849;BMP180;5983;49.966;8.052;2023-08-06T03:35:58;99430.00;;;16.30
11849;BMP180;5983;49.966;8.052;2023-08-06T03:38:25;99433.00;;;16.30
11849;BMP180;5983;49.966;8.052;2023-08-06T03:40:51;99434.00;;;16.30
11849;BMP180;5983;49.966;8.052;2023-08-06T03:43:18;99433.00;;;16.30
11849;BMP180;5983;49.966;8.052;2023-08-06T03:45:45;99422.00;;;16.30
11849;BMP180;5983;49.966;8.052;2023-08-06T03:48:12;99420.00;;;16.30
11849;BMP180;5983;49.966;8.052;2023-08-06T03:50:39;99418.00;;;16.20
11849;BMP180;5983;49.966;8.052;2023-08-06T03:53:08;99413.00;;;16.20
11849;BMP180;5983;49.966;8.052;2023-08-06T03:55:34;99410.00;;;16.20
11849;BMP180;5983;49.966;8.052;2023-08-06T03:58:01;99412.00;;;16.20
11849;BMP180;5983;49.966;8.052;2023-08-06T04:00:28;99410.00;;;16.20
11849;BMP180;5983;49.966;8.052;2023-08-06T04:02:55;99412.00;;;16.10
11849;BMP180;5983;49.966;8.052;2023-08-06T04:05:22;99416.00;;;16.10
11849;BMP180;5983;49.966;8.052;2023-08-06T04:07:49;99404.00;;;16.10
11849;BMP180;5983;49.966;8.052;2023-08-06T04:10:17;99408.00;;;16.10
11849;BMP180;5983;49.966;8.052;2023-08-06T04:12:44;99409.00;;;16.10
11849;BMP180;5983;49.966;8.052;2023-08-06T04:15:11;99414.00;;;16.10
11849;BMP180;5983;49.966;8.052;2023-08-06T04:17:38;99410.00;;;16.00
11849;BMP180;5983;49.966;8.052;2023-08-06T04:20:06;99411.00;;;16.10
11849;BMP180;5983;49.966;8.052;2023-08-06T04:22:33;99412.00;;;16.10
11849;BMP180;5983;49.966;8.052;2023-08-06T04:25:00;99411.00;;;16.10
11849;BMP180;5983;49.966;8.052;2023-08-06T04:27:29;99419.00;;;16.10
11849;BMP180;5983;49.966;8.052;2023-08-06T04:29:56;99415.00;;;16.10
11849;BMP180;5983;49.966;8.052;2023-08-06T04:32:23;99407.00;;;16.10
11849;BMP180;5983;49.966;8.052;2023-08-06T04:34:51;99407.00;;;16.00
11849;BMP180;5983;49.966;8.052;2023-08-06T04:37:17;99411.00;;;16.00
11849;BMP180;5983;49.966;8.052;2023-08-06T04:39:44;99401.00;;;16.10
11849;BMP180;5983;49.966;8.052;2023-08-06T04:42:12;99408.00;;;16.10
11849;BMP180;5983;49.966;8.052;2023-08-06T04:44:40;99409.00;;;16.10
11849;BMP180;5983;49.966;8.052;2023-08-06T04:47:07;99409.00;;;16.00
11849;BMP180;5983;49.966;8.052;2023-08-06T04:49:34;99397.00;;;16.00
11849;BMP180;5983;49.966;8.052;2023-08-06T04:52:01;99404.00;;;16.00
11849;BMP180;5983;49.966;8.052;2023-08-06T04:54:28;99410.00;;;16.10
11849;BMP180;5983;49.966;8.052;2023-08-06T04:56:55;99402.00;;;16.10
11849;BMP180;5983;49.966;8.052;2023-08-06T04:59:22;99396.00;;;16.10
11849;BMP180;5983;49.966;8.052;2023-08-06T05:01:50;99408.00;;;16.10
11849;BMP180;5983;49.966;8.052;2023-08-06T05:04:17;99404.00;;;16.10
11849;BMP180;5983;49.966;8.052;2023-08-06T05:06:44;99408.00;;;16.10
11849;BMP180;5983;49.966;8.052;2023-08-06T05:09:11;99401.00;;;16.10
11849;BMP180;5983;49.966;8.052;2023-08-06T05:11:37;99397.00;;;16.20
11849;BMP180;5983;49.966;8.052;2023-08-06T05:14:04;99406.00;;;16.20
11849;BMP180;5983;49.966;8.052;2023-08-06T05:16:31;99404.00;;;16.20
11849;BMP180;5983;49.966;8.052;2023-08-06T05:18:59;99400.00;;;16.20
11849;BMP180;5983;49.966;8.052;2023-08-06T05:21:26;99395.00;;;16.20
11849;BMP180;5983;49.966;8.052;2023-08-06T05:23:54;99402.00;;;16.30
11849;BMP180;5983;49.966;8.052;2023-08-06T05:26:21;99411.00;;;16.20
11849;BMP180;5983;49.966;8.052;2023-08-06T05:28:47;99402.00;;;16.20
11849;BMP180;5983;49.966;8.052;2023-08-06T05:31:14;99402.00;;;16.20
11849;BMP180;5983;49.966;8.052;2023-08-06T05:33:41;99400.00;;;16.20
11849;BMP180;5983;49.966;8.052;2023-08-06T05:36:09;99406.00;;;16.20
11849;BMP180;5983;49.966;8.052;2023-08-06T05:38:36;99401.00;;;16.20
11849;BMP180;5983;49.966;8.052;2023-08-06T05:41:03;99405.00;;;16.10
11849;BMP180;5983;49.966;8.052;2023-08-06T05:43:30;99397.00;;;16.10
11849;BMP180;5983;49.966;8.052;2023-08-06T05:45:56;99397.00;;;16.10
11849;BMP180;5983;49.966;8.052;2023-08-06T05:48:23;99401.00;;;16.10
11849;BMP180;5983;49.966;8.052;2023-08-06T05:50:52;99394.00;;;16.00
11849;BMP180;5983;49.966;8.052;2023-08-06T05:53:20;99403.00;;;16.00
11849;BMP180;5983;49.966;8.052;2023-08-06T05:55:47;99405.00;;;16.10
11849;BMP180;5983;49.966;8.052;2023-08-06T05:58:14;99397.00;;;16.00
11849;BMP180;5983;49.966;8.052;2023-08-06T06:00:40;99394.00;;;16.00
11849;BMP180;5983;49.966;8.052;2023-08-06T06:03:07;99407.00;;;16.00
11849;BMP180;5983;49.966;8.052;2023-08-06T06:05:34;99403.00;;;16.00
11849;BMP180;5983;49.966;8.052;2023-08-06T06:08:07;99417.00;;;16.00
11849;BMP180;5983;49.966;8.052;2023-08-06T06:10:35;99412.00;;;16.10
11849;BMP180;5983;49.966;8.052;2023-08-06T06:13:02;99405.00;;;16.10
11849;BMP180;5983;49.966;8.052;2023-08-06T06:15:29;99408.00;;;16.10
11849;BMP180;5983;49.966;8.052;2023-08-06T06:17:56;99418.00;;;16.20
11849;BMP180;5983;49.966;8.052;2023-08-06T06:20:23;99417.00;;;16.10
11849;BMP180;5983;49.966;8.052;2023-08-06T06:22:50;99427.00;;;16.10
11849;BMP180;5983;49.966;8.052;2023-08-06T06:25:19;99424.00;;;16.20
11849;BMP180;5983;49.966;8.052;2023-08-06T06:27:54;99417.00;;;16.30
11849;BMP180;5983;49.966;8.052;2023-08-06T06:30:21;99418.00;;;16.40
11849;BMP180;5983;49.966;8.052;2023-08-06T06:32:48;99429.00;;;16.40
11849;BMP180;5983;49.966;8.052;2023-08-06T06:35:23;99427.00;;;16.40
11849;BMP180;5983;49.966;8.052;2023-08-06T06:37:50;99422.00;;;16.50
11849;BMP180;5983;49.966;8.052;2023-08-06T06:40:22;99424.00;;;16.50
11849;BMP180;5983;49.966;8.052;2023-08-06T06:46:10;99434.00;;;16.70
11849;BMP180;5983;49.966;8.052;2023-08-06T06:48:37;99426.00;;;16.70
11849;BMP180;5983;49.966;8.052;2023-08-06T06:51:05;99428.00;;;16.80
11849;BMP180;5983;49.966;8.052;2023-08-06T06:53:36;99429.00;;;16.90
11849;BMP180;5983;49.966;8.052;2023-08-06T06:56:45;99427.00;;;17.00
11849;BMP180;5983;49.966;8.052;2023-08-06T06:58:56;99427.00;;;17.10
11849;BMP180;5983;49.966;8.052;2023-08-06T07:01:24;99427.00;;;17.10
11849;BMP180;5983;49.966;8.052;2023-08-06T07:03:51;99430.00;;;17.20
11849;BMP180;5983;49.966;8.052;2023-08-06T07:06:18;99432.00;;;17.30
11849;BMP180;5983;49.966;8.052;2023-08-06T07:08:45;99436.00;;;17.30
11849;BMP180;5983;49.966;8.052;2023-08-06T07:11:14;99439.00;;;17.30
11849;BMP180;5983;49.966;8.052;2023-08-06T07:13:41;99431.00;;;17.30
11849;BMP180;5983;49.966;8.052;2023-08-06T07:16:07;99432.00;;;17.40
11849;BMP180;5983;49.966;8.052;2023-08-06T07:18:36;99435.00;;;17.40
11849;BMP180;5983;49.966;8.052;2023-08-06T07:21:03;99437.00;;;17.40
11849;BMP180;5983;49.966;8.052;2023-08-06T07:23:29;99434.00;;;17.40
11849;BMP180;5983;49.966;8.052;2023-08-06T07:25:56;99427.00;;;17.50
11849;BMP180;5983;49.966;8.052;2023-08-06T07:28:23;99417.00;;;17.60
11849;BMP180;5983;49.966;8.052;2023-08-06T07:30:50;99429.00;;;17.80
11849;BMP180;5983;49.966;8.052;2023-08-06T07:33:17;99434.00;;;17.90
11849;BMP180;5983;49.966;8.052;2023-08-06T07:35:46;99432.00;;;18.00
11849;BMP180;5983;49.966;8.052;2023-08-06T07:38:16;99436.00;;;18.00
11849;BMP180;5983;49.966;8.052;2023-08-06T07:41:34;99430.00;;;18.10
11849;BMP180;5983;49.966;8.052;2023-08-06T07:45:36;99435.00;;;18.30
11849;BMP180;5983;49.966;8.052;2023-08-06T07:48:09;99429.00;;;18.40
11849;BMP180;5983;49.966;8.052;2023-08-06T07:50:36;99422.00;;;18.50
11849;BMP180;5983;49.966;8.052;2023-08-06T07:53:14;99423.00;;;18.60
11849;BMP180;5983;49.966;8.052;2023-08-06T07:55:50;99427.00;;;18.70
11849;BMP180;5983;49.966;8.052;2023-08-06T07:58:18;99420.00;;;18.90
11849;BMP180;5983;49.966;8.052;2023-08-06T08:01:02;99429.00;;;19.20
11849;BMP180;5983;49.966;8.052;2023-08-06T08:03:57;99436.00;;;19.50
11849;BMP180;5983;49.966;8.052;2023-08-06T08:06:25;99422.00;;;20.00
11849;BMP180;5983;49.966;8.052;2023-08-06T08:09:17;99428.00;;;20.30
11849;BMP180;5983;49.966;8.052;2023-08-06T08:12:25;99423.00;;;20.30
11849;BMP180;5983;49.966;8.052;2023-08-06T08:15:43;99412.00;;;20.10
11849;BMP180;5983;49.966;8.052;2023-08-06T08:20:16;99412.00;;;19.70
11849;BMP180;5983;49.966;8.052;2023-08-06T08:21:40;99410.00;;;19.60
11849;BMP180;5983;49.966;8.052;2023-08-06T08:24:22;99400.00;;;19.60
11849;BMP180;5983;49.966;8.052;2023-08-06T08:26:50;99406.00;;;19.80
11849;BMP180;5983;49.966;8.052;2023-08-06T08:29:17;99412.00;;;19.80
11849;BMP180;5983;49.966;8.052;2023-08-06T08:31:44;99399.00;;;19.80
11849;BMP180;5983;49.966;8.052;2023-08-06T08:34:11;99406.00;;;19.70
11849;BMP180;5983;49.966;8.052;2023-08-06T08:36:37;99408.00;;;19.80
11849;BMP180;5983;49.966;8.052;2023-08-06T08:48:22;99405.00;;;21.70
11849;BMP180;5983;49.966;8.052;2023-08-06T08:50:50;99403.00;;;21.30
11849;BMP180;5983;49.966;8.052;2023-08-06T08:53:18;99416.00;;;20.90
11849;BMP180;5983;49.966;8.052;2023-08-06T08:55:48;99405.00;;;20.40
11849;BMP180;5983;49.966;8.052;2023-08-06T08:58:16;99407.00;;;19.90
11849;BMP180;5983;49.966;8.052;2023-08-06T09:00:45;99412.00;;;19.60
11849;BMP180;5983;49.966;8.052;2023-08-06T09:03:13;99408.00;;;19.60
11849;BMP180;5983;49.966;8.052;2023-08-06T09:05:45;99412.00;;;19.90
11849;BMP180;5983;49.966;8.052;2023-08-06T09:08:18;99416.00;;;20.30
11849;BMP180;5983;49.966;8.052;2023-08-06T09:10:48;99411.00;;;20.50
11849;BMP180;5983;49.966;8.052;2023-08-06T09:13:16;99411.00;;;20.60
11849;BMP180;5983;49.966;8.052;2023-08-06T09:15:43;99407.00;;;20.60
11849;BMP180;5983;49.966;8.052;2023-08-06T09:18:11;99427.00;;;20.70
11849;BMP180;5983;49.966;8.052;2023-08-06T09:20:40;99424.00;;;20.70
11849;BMP180;5983;49.966;8.052;2023-08-06T09:23:08;99417.00;;;20.70
11849;BMP180;5983;49.966;8.052;2023-08-06T09:25:39;99422.00;;;20.50
11849;BMP180;5983;49.966;8.052;2023-08-06T09:28:06;99429.00;;;20.40
11849;BMP180;5983;49.966;8.052;2023-08-06T09:30:36;99431.00;;;20.30
11849;BMP180;5983;49.966;8.052;2023-08-06T09:33:08;99432.00;;;20.20
11849;BMP180;5983;49.966;8.052;2023-08-06T09:35:37;99424.00;;;20.10
11849;BMP180;5983;49.966;8.052;2023-08-06T09:38:08;99437.00;;;20.10
11849;BMP180;5983;49.966;8.052;2023-08-06T09:40:37;99428.00;;;20.20
11849;BMP180;5983;49.966;8.052;2023-08-06T09:43:04;99432.00;;;20.30
11849;BMP180;5983;49.966;8.052;2023-08-06T09:45:33;99429.00;;;20.40
11849;BMP180;5983;49.966;8.052;2023-08-06T09:48:02;99437.00;;;20.50
11849;BMP180;5983;49.966;8.052;2023-08-06T09:50:31;99436.00;;;20.50
11849;BMP180;5983;49.966;8.052;2023-08-06T09:53:01;99440.00;;;20.70
11849;BMP180;5983;49.966;8.052;2023-08-06T09:55:30;99450.00;;;20.80
11849;BMP180;5983;49.966;8.052;2023-08-06T09:57:58;99430.00;;;20.70
11849;BMP180;5983;49.966;8.052;2023-08-06T10:00:26;99432.00;;;20.80
11849;BMP180;5983;49.966;8.052;2023-08-06T10:02:54;99445.00;;;21.20
11849;BMP180;5983;49.966;8.052;2023-08-06T10:05:27;99433.00;;;21.80
11849;BMP180;5983;49.966;8.052;2023-08-06T10:07:55;99435.00;;;22.40
11849;BMP180;5983;49.966;8.052;2023-08-06T10:10:25;99443.00;;;22.90
11849;BMP180;5983;49.966;8.052;2023-08-06T10:12:58;99444.00;;;23.30
11849;BMP180;5983;49.966;8.052;2023-08-06T10:15:29;99445.00;;;23.60
11849;BMP180;5983;49.966;8.052;2023-08-06T10:17:59;99441.00;;;23.50
11849;BMP180;5983;49.966;8.052;2023-08-06T10:20:33;99450.00;;;23.40
11849;BMP180;5983;49.966;8.052;2023-08-06T10:23:02;99459.00;;;22.90
11849;BMP180;5983;49.966;8.052;2023-08-06T10:25:32;99457.00;;;22.60
11849;BMP180;5983;49.966;8.052;2023-08-06T10:28:07;99463.00;;;22.30
11849;BMP180;5983;49.966;8.052;2023-08-06T10:30:42;99451.00;;;21.80
11849;BMP180;5983;49.966;8.052;2023-08-06T10:33:10;99466.00;;;21.60
11849;BMP180;5983;49.966;8.052;2023-08-06T10:35:40;99472.00;;;21.50
11849;BMP180;5983;49.966;8.052;2023-08-06T10:38:11;99479.00;;;21.30
11849;BMP180;5983;49.966;8.052;2023-08-06T10:40:41;99483.00;;;21.10
11849;BMP180;5983;49.966;8.052;2023-08-06T10:43:25;99503.00;;;20.80
11849;BMP180;5983;49.966;8.052;2023-08-06T10:45:53;99504.00;;;20.60
11849;BMP180;5983;49.966;8.052;2023-08-06T10:48:30;99509.00;;;20.50
11849;BMP180;5983;49.966;8.052;2023-08-06T10:50:58;99520.00;;;20.50
11849;BMP180;5983;49.966;8.052;2023-08-06T10:53:25;99525.00;;;20.50
11849;BMP180;5983;49.966;8.052;2023-08-06T10:55:52;99524.00;;;20.50
11849;BMP180;5983;49.966;8.052;2023-08-06T10:58:21;99537.00;;;20.40
11849;BMP180;5983;49.966;8.052;2023-08-06T11:00:48;99540.00;;;20.40
11849;BMP180;5983;49.966;8.052;2023-08-06T11:03:15;99539.00;;;20.20
11849;BMP180;5983;49.966;8.052;2023-08-06T11:05:48;99554.00;;;20.00
11849;BMP180;5983;49.966;8.052;2023-08-06T11:08:24;99551.00;;;19.80
11849;BMP180;5983;49.966;8.052;2023-08-06T11:10:51;99551.00;;;19.70
11849;BMP180;5983;49.966;8.052;2023-08-06T11:13:18;99542.00;;;19.60
11849;BMP180;5983;49.966;8.052;2023-08-06T11:15:47;99557.00;;;19.40
11849;BMP180;5983;49.966;8.052;2023-08-06T11:18:14;99550.00;;;19.30
11849;BMP180;5983;49.966;8.052;2023-08-06T11:20:41;99568.00;;;19.30
11849;BMP180;5983;49.966;8.052;2023-08-06T11:23:10;99566.00;;;19.20
11849;BMP180;5983;49.966;8.052;2023-08-06T11:25:43;99575.00;;;19.20
11849;BMP180;5983;49.966;8.052;2023-08-06T11:28:11;99576.00;;;19.20
11849;BMP180;5983;49.966;8.052;2023-08-06T11:30:38;99578.00;;;19.20
11849;BMP180;5983;49.966;8.052;2023-08-06T11:33:07;99587.00;;;19.20
11849;BMP180;5983;49.966;8.052;2023-08-06T11:35:35;99599.00;;;19.00
11849;BMP180;5983;49.966;8.052;2023-08-06T11:38:03;99606.00;;;18.90
11849;BMP180;5983;49.966;8.052;2023-08-06T11:40:31;99608.00;;;18.90
11849;BMP180;5983;49.966;8.052;2023-08-06T11:42:58;99618.00;;;19.00
11849;BMP180;5983;49.966;8.052;2023-08-06T11:45:25;99610.00;;;19.10
11849;BMP180;5983;49.966;8.052;2023-08-06T11:47:53;99616.00;;;19.20
11849;BMP180;5983;49.966;8.052;2023-08-06T11:50:25;99614.00;;;19.40
11849;BMP180;5983;49.966;8.052;2023-08-06T11:52:59;99625.00;;;19.50
11849;BMP180;5983;49.966;8.052;2023-08-06T11:55:28;99621.00;;;19.60
11849;BMP180;5983;49.966;8.052;2023-08-06T11:57:55;99629.00;;;19.70
11849;BMP180;5983;49.966;8.052;2023-08-06T12:00:24;99632.00;;;19.70
11849;BMP180;5983;49.966;8.052;2023-08-06T12:02:52;99633.00;;;19.60
11849;BMP180;5983;49.966;8.052;2023-08-06T12:05:22;99639.00;;;19.60
11849;BMP180;5983;49.966;8.052;2023-08-06T12:07:52;99634.00;;;19.50
11849;BMP180;5983;49.966;8.052;2023-08-06T12:10:21;99636.00;;;19.50
11849;BMP180;5983;49.966;8.052;2023-08-06T12:12:49;99646.00;;;19.40
11849;BMP180;5983;49.966;8.052;2023-08-06T12:15:16;99647.00;;;19.30
11849;BMP180;5983;49.966;8.052;2023-08-06T12:17:44;99657.00;;;19.30
11849;BMP180;5983;49.966;8.052;2023-08-06T12:20:11;99659.00;;;19.20
11849;BMP180;5983;49.966;8.052;2023-08-06T12:22:38;99660.00;;;19.00
11849;BMP180;5983;49.966;8.052;2023-08-06T12:25:08;99657.00;;;18.90
11849;BMP180;5983;49.966;8.052;2023-08-06T12:27:39;99660.00;;;18.80
11849;BMP180;5983;49.966;8.052;2023-08-06T12:30:07;99668.00;;;18.70
11849;BMP180;5983;49.966;8.052;2023-08-06T12:32:35;99667.00;;;18.60
11849;BMP180;5983;49.966;8.052;2023-08-06T12:35:02;99663.00;;;18.50
11849;BMP180;5983;49.966;8.052;2023-08-06T12:37:30;99665.00;;;18.40
11849;BMP180;5983;49.966;8.052;2023-08-06T12:39:57;99665.00;;;18.40
11849;BMP180;5983;49.966;8.052;2023-08-06T12:42:25;99673.00;;;18.30
11849;BMP180;5983;49.966;8.052;2023-08-06T12:44:52;99680.00;;;18.40
11849;BMP180;5983;49.966;8.052;2023-08-06T12:47:19;99686.00;;;18.30
11849;BMP180;5983;49.966;8.052;2023-08-06T12:49:46;99682.00;;;18.20
11849;BMP180;5983;49.966;8.052;2023-08-06T12:52:15;99677.00;;;18.30
11849;BMP180;5983;49.966;8.052;2023-08-06T12:54:42;99692.00;;;18.30
11849;BMP180;5983;49.966;8.052;2023-08-06T12:57:11;99693.00;;;18.40
11849;BMP180;5983;49.966;8.052;2023-08-06T12:59:39;99695.00;;;18.40
11849;BMP180;5983;49.966;8.052;2023-08-06T13:02:06;99718.00;;;18.50
11849;BMP180;5983;49.966;8.052;2023-08-06T13:04:33;99711.00;;;18.50
11849;BMP180;5983;49.966;8.052;2023-08-06T13:07:00;99716.00;;;18.40
11849;BMP180;5983;49.966;8.052;2023-08-06T13:09:27;99719.00;;;18.40
11849;BMP180;5983;49.966;8.052;2023-08-06T13:11:55;99731.00;;;18.40
11849;BMP180;5983;49.966;8.052;2023-08-06T13:14:22;99741.00;;;18.40
11849;BMP180;5983;49.966;8.052;2023-08-06T13:16:50;99740.00;;;18.40
11849;BMP180;5983;49.966;8.052;2023-08-06T13:19:17;99737.00;;;18.50
11849;BMP180;5983;49.966;8.052;2023-08-06T13:22:08;99731.00;;;18.60
11849;BMP180;5983;49.966;8.052;2023-08-06T13:24:35;99749.00;;;18.70
11849;BMP180;5983;49.966;8.052;2023-08-06T13:27:02;99748.00;;;18.90
11849;BMP180;5983;49.966;8.052;2023-08-06T13:29:29;99747.00;;;19.00
11849;BMP180;5983;49.966;8.052;2023-08-06T13:31:57;99751.00;;;19.10
11849;BMP180;5983;49.966;8.052;2023-08-06T13:34:24;99750.00;;;19.20
11849;BMP180;5983;49.966;8.052;2023-08-06T13:36:51;99749.00;;;19.20
11849;BMP180;5983;49.966;8.052;2023-08-06T13:39:18;99761.00;;;19.20
11849;BMP180;5983;49.966;8.052;2023-08-06T13:41:45;99760.00;;;19.20
11849;BMP180;5983;49.966;8.052;2023-08-06T13:44:12;99771.00;;;19.20
11849;BMP180;5983;49.966;8.052;2023-08-06T13:46:41;99761.00;;;19.10
11849;BMP180;5983;49.966;8.052;2023-08-06T13:49:10;99769.00;;;19.00
11849;BMP180;5983;49.966;8.052;2023-08-06T13:51:37;99763.00;;;19.00
11849;BMP180;5983;49.966;8.052;2023-08-06T13:54:04;99764.00;;;18.90
11849;BMP180;5983;49.966;8.052;2023-08-06T13:56:34;99765.00;;;18.80
11849;BMP180;5983;49.966;8.052;2023-08-06T13:59:02;99771.00;;;18.80
11849;BMP180;5983;49.966;8.052;2023-08-06T14:01:29;99764.00;;;18.80
11849;BMP180;5983;49.966;8.052;2023-08-06T14:03:56;99769.00;;;18.80
11849;BMP180;5983;49.966;8.052;2023-08-06T14:06:24;99774.00;;;18.90
11849;BMP180;5983;49.966;8.052;2023-08-06T14:08:51;99772.00;;;18.80
11849;BMP180;5983;49.966;8.052;2023-08-06T14:11:18;99782.00;;;18.90
11849;BMP180;5983;49.966;8.052;2023-08-06T14:13:45;99777.00;;;18.90
11849;BMP180;5983;49.966;8.052;2023-08-06T14:16:12;99779.00;;;18.80
11849;BMP180;5983;49.966;8.052;2023-08-06T14:18:39;99786.00;;;18.80
11849;BMP180;5983;49.966;8.052;2023-08-06T14:21:07;99788.00;;;18.80
11849;BMP180;5983;49.966;8.052;2023-08-06T14:23:35;99782.00;;;18.80
11849;BMP180;5983;49.966;8.052;2023-08-06T14:26:02;99788.00;;;18.80
11849;BMP180;5983;49.966;8.052;2023-08-06T14:28:29;99784.00;;;18.80
11849;BMP180;5983;49.966;8.052;2023-08-06T14:30:56;99796.00;;;18.80
11849;BMP180;5983;49.966;8.052;2023-08-06T14:33:23;99786.00;;;18.80
11849;BMP180;5983;49.966;8.052;2023-08-06T14:35:50;99811.00;;;18.90
11849;BMP180;5983;49.966;8.052;2023-08-06T14:38:17;99800.00;;;18.90
11849;BMP180;5983;49.966;8.052;2023-08-06T14:40:45;99801.00;;;18.90
11849;BMP180;5983;49.966;8.052;2023-08-06T14:43:12;99821.00;;;18.80
11849;BMP180;5983;49.966;8.052;2023-08-06T14:45:40;99824.00;;;18.80